Time;durP1;ratioP1;P1;durP2;ratioP2;P2;SDS_P1;SDS_P2;PMS_P1;PMS_P2;Temp;Humidity;BMP_temperature;BMP_pressure;BME280_temperature;BME280_humidity;BME280_pressure;Samples;Min_cycle;Max_cycle;Signal;HPM_P1;HPM_P2
2022/10/09 00:02:16;;;;;;;;;;;11.60;99.90;;;;;;5097714;28;19904;-76
2022/10/09 00:04:43;;;;;;;;;;;11.50;99.90;;;;;;5068665;28;20068;-76
2022/10/09 00:07:10;;;;;;;;;;;11.50;99.90;;;;;;5087108;28;19979;-76
2022/10/09 00:09:35;;;;;;;;;;;11.50;99.90;;;;;;5087220;28;20124;-76
2022/10/09 00:12:01;;;;;;;;;;;11.80;99.90;;;;;;5068761;28;19916;-76
2022/10/09 00:14:27;;;;;;;;;;;11.40;99.90;;;;;;5086586;28;19907;-76
2022/10/09 00:16:53;;;;;;;;;;;11.40;99.90;;;;;;5087130;28;20013;-77
2022/10/09 00:19:18;;;;;;;;;;;11.30;99.90;;;;;;5095947;28;19911;-76
2022/10/09 00:21:44;;;;;;;;;;;11.40;99.90;;;;;;5096451;28;19904;-77
2022/10/09 00:24:10;;;;;;;;;;;11.30;99.90;;;;;;5077851;28;19904;-76
2022/10/09 00:26:35;;;;;;;;;;;11.20;99.90;;;;;;5078850;28;19908;-77
2022/10/09 00:29:03;;;;;;;;;;;11.20;99.90;;;;;;5092632;28;19964;-76
2022/10/09 00:31:28;;;;;;;;;;;11.20;99.90;;;;;;5095362;28;20274;-75
2022/10/09 00:33:54;;;;;;;;;;;11.20;99.90;;;;;;5080640;28;20363;-76
2022/10/09 00:36:22;;;;;;;;;;;11.20;99.90;;;;;;5100307;28;20298;-77
2022/10/09 00:38:48;;;;;;;;;;;9.90;99.90;;;;;;5083235;28;19908;-77
2022/10/09 00:41:15;;;;;;;;;;;11.70;99.90;;;;;;5082675;28;19910;-76
2022/10/09 00:43:50;;;;;;;;;;;11.20;99.90;;;;;;5099780;28;19904;-76
2022/10/09 00:46:45;;;;;;;;;;;11.50;99.90;;;;;;5100859;28;20159;-76
2022/10/09 00:49:23;;;;;;;;;;;11.10;99.90;;;;;;4999422;28;20147;-75
2022/10/09 00:51:49;;;;;;;;;;;11.10;99.90;;;;;;4993768;28;20194;-76
2022/10/09 00:54:16;;;;;;;;;;;11.10;99.90;;;;;;4978766;28;19920;-76
2022/10/09 00:56:42;;;;;;;;;;;11.00;99.90;;;;;;4996265;28;19920;-76
2022/10/09 00:59:09;;;;;;;;;;;11.00;99.90;;;;;;4995523;28;20119;-79
2022/10/09 01:01:36;;;;;;;;;;;11.00;99.90;;;;;;4994946;28;19934;-76
2022/10/09 01:04:01;;;;;;;;;;;11.00;99.90;;;;;;4995842;28;19909;-75
2022/10/09 01:06:39;;;;;;;;;;;11.00;99.90;;;;;;4995293;28;19965;-76
2022/10/09 01:09:10;;;;;;;;;;;11.00;99.90;;;;;;4995525;28;19914;-76
2022/10/09 01:11:42;;;;;;;;;;;9.50;99.90;;;;;;4995752;28;19912;-76
2022/10/09 01:14:21;;;;;;;;;;;10.90;99.90;;;;;;4992524;28;19929;-76
2022/10/09 01:17:10;;;;;;;;;;;10.90;99.90;;;;;;4993309;28;19909;-76
2022/10/09 01:19:55;;;;;;;;;;;13.00;99.90;;;;;;4977810;28;19924;-76
2022/10/09 01:22:34;;;;;;;;;;;11.60;99.90;;;;;;4994407;28;19934;-75
2022/10/09 01:25:06;;;;;;;;;;;10.90;99.90;;;;;;5019068;28;20398;-77
2022/10/09 01:27:32;;;;;;;;;;;10.80;99.90;;;;;;5096685;28;20448;-76
2022/10/09 01:30:02;;;;;;;;;;;10.90;99.90;;;;;;5097086;28;19999;-76
2022/10/09 01:32:32;;;;;;;;;;;10.90;99.90;;;;;;5095116;28;19926;-76
2022/10/09 01:35:00;;;;;;;;;;;12.60;99.90;;;;;;5096710;28;19904;-76
2022/10/09 01:37:26;;;;;;;;;;;10.90;99.90;;;;;;5098077;28;19950;-76
2022/10/09 01:39:52;;;;;;;;;;;10.80;99.90;;;;;;5097600;28;19904;-75
2022/10/09 01:42:19;;;;;;;;;;;10.80;99.90;;;;;;5097247;28;19904;-76
2022/10/09 01:44:45;;;;;;;;;;;10.90;99.90;;;;;;5094587;28;19943;-77
2022/10/09 01:47:29;;;;;;;;;;;10.80;99.90;;;;;;5098012;28;20394;-76
2022/10/09 01:50:06;;;;;;;;;;;10.70;99.90;;;;;;5095400;28;20304;-75
2022/10/09 01:52:31;;;;;;;;;;;10.70;99.90;;;;;;5078061;28;20166;-76
2022/10/09 01:55:06;;;;;;;;;;;10.70;99.90;;;;;;5097541;28;19908;-76
2022/10/09 01:58:07;;;;;;;;;;;10.60;99.90;;;;;;5079439;28;19908;-76
2022/10/09 02:00:36;;;;;;;;;;;10.60;99.90;;;;;;4979130;28;20201;-76
2022/10/09 02:03:06;;;;;;;;;;;10.60;99.90;;;;;;4995037;28;19953;-76
2022/10/09 02:05:36;;;;;;;;;;;10.50;99.90;;;;;;4998825;28;19994;-76
2022/10/09 02:08:02;;;;;;;;;;;10.30;99.90;;;;;;4996095;28;20013;-76
2022/10/09 02:10:29;;;;;;;;;;;9.50;99.90;;;;;;4996049;28;19910;-76
2022/10/09 02:12:58;;;;;;;;;;;10.50;99.90;;;;;;4992360;28;19933;-77
2022/10/09 02:15:25;;;;;;;;;;;10.50;99.90;;;;;;4975395;28;19964;-76
2022/10/09 02:17:53;;;;;;;;;;;10.50;99.90;;;;;;4990580;28;19928;-75
2022/10/09 02:20:23;;;;;;;;;;;10.50;99.90;;;;;;4991583;28;19912;-77
2022/10/09 02:22:50;;;;;;;;;;;10.40;99.90;;;;;;4975769;28;20428;-77
2022/10/09 02:25:18;;;;;;;;;;;10.40;99.90;;;;;;4993435;28;19910;-76
2022/10/09 02:27:44;;;;;;;;;;;10.40;99.90;;;;;;4978255;28;20432;-76
2022/10/09 02:30:11;;;;;;;;;;;10.40;99.90;;;;;;4993498;28;19975;-76
2022/10/09 02:32:37;;;;;;;;;;;10.50;99.90;;;;;;4992957;28;19906;-75
2022/10/09 02:35:03;;;;;;;;;;;10.30;99.90;;;;;;5065751;28;19904;-76
2022/10/09 02:37:29;;;;;;;;;;;7.70;99.90;;;;;;5098673;28;19988;-75
2022/10/09 02:39:55;;;;;;;;;;;10.30;99.90;;;;;;5098245;28;19912;-76
2022/10/09 02:42:21;;;;;;;;;;;10.30;99.90;;;;;;5079385;28;19914;-76
2022/10/09 02:44:46;;;;;;;;;;;10.20;99.90;;;;;;5096108;28;19911;-75
2022/10/09 02:47:13;;;;;;;;;;;10.20;99.90;;;;;;5078396;28;19918;-76
2022/10/09 02:49:38;;;;;;;;;;;10.20;99.90;;;;;;5095531;28;19908;-76
2022/10/09 02:52:04;;;;;;;;;;;10.10;99.90;;;;;;5076557;28;19926;-76
2022/10/09 02:54:30;;;;;;;;;;;10.10;99.90;;;;;;5077045;28;19914;-76
2022/10/09 02:56:58;;;;;;;;;;;10.10;99.90;;;;;;5071201;28;19908;-76
2022/10/09 02:59:24;;;;;;;;;;;10.10;99.90;;;;;;5088840;28;19964;-76
2022/10/09 03:01:50;;;;;;;;;;;10.60;99.90;;;;;;5088317;28;19939;-76
2022/10/09 03:04:16;;;;;;;;;;;10.20;99.90;;;;;;5072626;28;19925;-76
2022/10/09 03:06:41;;;;;;;;;;;9.10;99.90;;;;;;5097090;28;19915;-76
2022/10/09 03:09:07;;;;;;;;;;;10.20;99.90;;;;;;5097690;28;20108;-76
2022/10/09 03:11:32;;;;;;;;;;;10.10;99.90;;;;;;5096739;28;20303;-76
2022/10/09 03:14:01;;;;;;;;;;;10.20;99.90;;;;;;5099052;28;19961;-77
2022/10/09 03:16:27;;;;;;;;;;;10.10;99.90;;;;;;5100787;28;19908;-77
2022/10/09 03:18:53;;;;;;;;;;;12.00;99.90;;;;;;5081689;28;19904;-76
2022/10/09 03:21:25;;;;;;;;;;;10.10;99.90;;;;;;5101072;28;19965;-76
2022/10/09 03:23:52;;;;;;;;;;;9.80;99.90;;;;;;5100062;28;19939;-77
2022/10/09 03:26:19;;;;;;;;;;;10.20;99.90;;;;;;5099640;28;19908;-75
2022/10/09 03:28:46;;;;;;;;;;;10.10;99.90;;;;;;5098937;28;19942;-76
2022/10/09 03:31:13;;;;;;;;;;;10.20;99.90;;;;;;5099330;28;19907;-76
2022/10/09 03:33:38;;;;;;;;;;;10.20;99.90;;;;;;5096079;28;19999;-76
2022/10/09 03:36:07;;;;;;;;;;;10.20;99.90;;;;;;5094026;28;20627;-77
2022/10/09 03:38:33;;;;;;;;;;;10.20;99.90;;;;;;5093713;28;20090;-76
2022/10/09 03:41:05;;;;;;;;;;;10.20;99.90;;;;;;5092813;28;19987;-76
2022/10/09 03:43:31;;;;;;;;;;;10.20;99.90;;;;;;5092265;28;19908;-75
2022/10/09 03:45:57;;;;;;;;;;;10.20;99.90;;;;;;5076468;28;19926;-75
2022/10/09 03:48:23;;;;;;;;;;;10.20;99.90;;;;;;5095677;28;19912;-77
2022/10/09 03:50:49;;;;;;;;;;;10.20;99.90;;;;;;5075583;28;19911;-76
2022/10/09 03:53:15;;;;;;;;;;;10.60;99.90;;;;;;5078276;28;20315;-76
2022/10/09 03:55:41;;;;;;;;;;;10.20;99.90;;;;;;5101020;28;19915;-77
2022/10/09 03:58:07;;;;;;;;;;;10.00;99.90;;;;;;5081998;28;19905;-77
2022/10/09 04:00:34;;;;;;;;;;;10.70;99.90;;;;;;5079625;28;19912;-77
2022/10/09 04:03:00;;;;;;;;;;;10.10;99.90;;;;;;5097904;28;19911;-76
2022/10/09 04:05:26;;;;;;;;;;;10.10;99.90;;;;;;5086054;28;19940;-77
2022/10/09 04:07:52;;;;;;;;;;;10.00;99.90;;;;;;5084054;28;20131;-76
2022/10/09 04:10:17;;;;;;;;;;;10.00;99.90;;;;;;5083288;28;20073;-76
2022/10/09 04:12:43;;;;;;;;;;;10.00;99.90;;;;;;5082659;28;20512;-77
2022/10/09 04:15:11;;;;;;;;;;;9.90;99.90;;;;;;5082372;28;19904;-76
2022/10/09 04:17:36;;;;;;;;;;;9.80;99.90;;;;;;5065781;28;19910;-76
2022/10/09 04:20:02;;;;;;;;;;;9.80;99.90;;;;;;5088795;28;19967;-76
2022/10/09 04:22:28;;;;;;;;;;;9.80;99.90;;;;;;5089792;28;20007;-76
2022/10/09 04:24:53;;;;;;;;;;;9.80;99.90;;;;;;5088959;28;19904;-76
2022/10/09 04:27:19;;;;;;;;;;;9.40;99.90;;;;;;5092093;28;19922;-76
2022/10/09 04:29:46;;;;;;;;;;;8.80;99.90;;;;;;5090051;28;19908;-76
2022/10/09 04:32:11;;;;;;;;;;;9.70;99.90;;;;;;5092189;28;20441;-75
2022/10/09 04:34:37;;;;;;;;;;;9.60;99.90;;;;;;5088575;28;19904;-76
2022/10/09 04:37:02;;;;;;;;;;;9.70;99.90;;;;;;5090554;28;20359;-76
2022/10/09 04:39:28;;;;;;;;;;;9.30;99.90;;;;;;5091507;28;19934;-76
2022/10/09 04:41:54;;;;;;;;;;;9.50;99.90;;;;;;5074718;28;19930;-76
2022/10/09 04:44:24;;;;;;;;;;;9.50;99.90;;;;;;5074269;28;19908;-76
2022/10/09 04:46:50;;;;;;;;;;;9.50;99.90;;;;;;5093300;28;19904;-76
2022/10/09 04:49:16;;;;;;;;;;;9.50;99.90;;;;;;5074549;28;19918;-77
2022/10/09 04:51:42;;;;;;;;;;;9.50;99.90;;;;;;5090781;28;19955;-77
2022/10/09 04:54:08;;;;;;;;;;;9.50;99.90;;;;;;5087334;28;19904;-76
2022/10/09 04:56:34;;;;;;;;;;;9.50;99.90;;;;;;5073029;28;20021;-76
2022/10/09 04:59:00;;;;;;;;;;;9.50;99.90;;;;;;5099003;23;19928;-76
2022/10/09 05:01:27;;;;;;;;;;;9.50;99.90;;;;;;5076194;28;20273;-77
2022/10/09 05:03:53;;;;;;;;;;;9.50;99.90;;;;;;5074208;28;20180;-76
2022/10/09 05:06:19;;;;;;;;;;;9.20;99.90;;;;;;5077421;28;19931;-76
2022/10/09 05:08:47;;;;;;;;;;;9.50;99.90;;;;;;5078667;28;20386;-76
2022/10/09 05:11:14;;;;;;;;;;;9.50;99.90;;;;;;5059499;28;19938;-77
2022/10/09 05:13:44;;;;;;;;;;;9.50;99.90;;;;;;5057835;28;20189;-77
2022/10/09 05:16:11;;;;;;;;;;;6.60;99.90;;;;;;5075828;28;19916;-76
2022/10/09 05:18:41;;;;;;;;;;;10.00;99.90;;;;;;5075972;28;19909;-77
2022/10/09 05:21:07;;;;;;;;;;;9.90;99.90;;;;;;5057488;28;19908;-77
2022/10/09 05:23:36;;;;;;;;;;;8.60;99.90;;;;;;5076741;28;19916;-77
2022/10/09 05:26:04;;;;;;;;;;;9.00;99.90;;;;;;5075487;28;19974;-76
2022/10/09 05:28:31;;;;;;;;;;;9.60;99.90;;;;;;5077148;28;20236;-77
2022/10/09 05:30:58;;;;;;;;;;;9.60;99.90;;;;;;5075104;28;19904;-76
2022/10/09 05:33:23;;;;;;;;;;;9.70;99.90;;;;;;5074879;28;19911;-77
2022/10/09 05:35:53;;;;;;;;;;;9.70;99.90;;;;;;5074927;28;19904;-75
2022/10/09 05:38:19;;;;;;;;;;;9.80;99.90;;;;;;5074127;28;19904;-77
2022/10/09 05:40:54;;;;;;;;;;;9.90;99.90;;;;;;5056437;28;20197;-77
2022/10/09 05:43:32;;;;;;;;;;;9.90;99.90;;;;;;5073975;28;19904;-77
2022/10/09 05:46:11;;;;;;;;;;;10.00;99.90;;;;;;5073535;28;19915;-77
2022/10/09 05:48:44;;;;;;;;;;;9.70;99.90;;;;;;5056712;28;19998;-76
2022/10/09 05:51:12;;;;;;;;;;;10.20;99.90;;;;;;5074672;28;19971;-76
2022/10/09 05:53:38;;;;;;;;;;;10.30;99.90;;;;;;5074559;28;19958;-76
2022/10/09 05:56:11;;;;;;;;;;;10.40;99.90;;;;;;5075101;28;20018;-77
2022/10/09 05:58:38;;;;;;;;;;;10.40;99.90;;;;;;5072831;28;20164;-76
2022/10/09 06:01:03;;;;;;;;;;;10.10;99.90;;;;;;5057895;28;20276;-77
2022/10/09 06:03:29;;;;;;;;;;;10.60;99.90;;;;;;5073345;28;19915;-76
2022/10/09 06:05:59;;;;;;;;;;;10.10;99.90;;;;;;5076244;28;20000;-78
2022/10/09 06:08:25;;;;;;;;;;;10.80;99.90;;;;;;5078451;28;19988;-76
2022/10/09 06:10:51;;;;;;;;;;;10.80;99.90;;;;;;5079215;28;19948;-76
2022/10/09 06:13:16;;;;;;;;;;;10.80;99.90;;;;;;5079126;28;19986;-76
2022/10/09 06:15:54;;;;;;;;;;;10.90;99.90;;;;;;5079894;28;19904;-77
2022/10/09 06:18:24;;;;;;;;;;;10.90;99.90;;;;;;5079390;28;20279;-78
2022/10/09 06:20:53;;;;;;;;;;;10.90;99.90;;;;;;5062666;28;19912;-77
2022/10/09 06:23:19;;;;;;;;;;;11.00;99.90;;;;;;5076350;28;19914;-77
2022/10/09 06:25:59;;;;;;;;;;;11.20;99.90;;;;;;5055542;28;19971;-77
2022/10/09 06:28:25;;;;;;;;;;;11.20;99.90;;;;;;5060230;28;20387;-78
2022/10/09 06:30:51;;;;;;;;;;;11.20;99.90;;;;;;5075369;28;19905;-77
2022/10/09 06:33:16;;;;;;;;;;;11.40;99.90;;;;;;5057691;28;19935;-77
2022/10/09 06:35:45;;;;;;;;;;;11.50;99.90;;;;;;5055200;28;19904;-79
2022/10/09 06:38:11;;;;;;;;;;;11.60;99.90;;;;;;5073873;28;20010;-76
2022/10/09 06:40:37;;;;;;;;;;;11.70;99.90;;;;;;5055332;28;20224;-77
2022/10/09 06:43:03;;;;;;;;;;;11.90;99.90;;;;;;5052293;28;19988;-79
2022/10/09 06:45:28;;;;;;;;;;;12.00;99.90;;;;;;5067209;28;19944;-77
2022/10/09 06:47:54;;;;;;;;;;;12.10;99.90;;;;;;5044792;28;20146;-77
2022/10/09 06:50:20;;;;;;;;;;;12.20;99.90;;;;;;5059128;28;19918;-80
2022/10/09 06:52:46;;;;;;;;;;;12.40;99.90;;;;;;5060833;28;20103;-77
2022/10/09 06:55:11;;;;;;;;;;;12.40;99.90;;;;;;5040678;28;20148;-78
2022/10/09 06:57:37;;;;;;;;;;;12.50;99.90;;;;;;5058827;28;20166;-79
2022/10/09 07:00:03;;;;;;;;;;;12.60;99.90;;;;;;5040929;28;19991;-78
2022/10/09 07:02:31;;;;;;;;;;;12.70;99.90;;;;;;5041118;28;19958;-81
2022/10/09 07:04:56;;;;;;;;;;;12.90;99.90;;;;;;5059565;28;20111;-79
2022/10/09 07:07:22;;;;;;;;;;;12.90;99.90;;;;;;5061008;28;19923;-89
2022/10/09 07:09:47;;;;;;;;;;;13.00;99.90;;;;;;5061381;28;19916;-82
2022/10/09 07:12:13;;;;;;;;;;;13.00;99.90;;;;;;5061724;28;19911;-77
2022/10/09 07:14:39;;;;;;;;;;;13.00;99.90;;;;;;5061155;28;19904;-80
2022/10/09 07:17:04;;;;;;;;;;;13.00;99.90;;;;;;5045125;28;19962;-81
2022/10/09 07:19:30;;;;;;;;;;;13.20;99.90;;;;;;5048354;28;20153;-87
2022/10/09 07:21:55;;;;;;;;;;;12.00;99.90;;;;;;5066587;28;19904;-77
2022/10/09 07:24:23;;;;;;;;;;;13.30;99.90;;;;;;5048446;28;19935;-77
2022/10/09 07:26:49;;;;;;;;;;;13.30;99.90;;;;;;5047596;28;20212;-82
2022/10/09 07:29:15;;;;;;;;;;;13.50;99.90;;;;;;5064466;28;20181;-83
2022/10/09 07:31:41;;;;;;;;;;;13.80;99.90;;;;;;5063388;28;19947;-77
2022/10/09 07:34:06;;;;;;;;;;;13.60;99.90;;;;;;5043114;28;19951;-77
2022/10/09 07:36:32;;;;;;;;;;;13.70;99.90;;;;;;5059364;28;20320;-77
2022/10/09 07:38:58;;;;;;;;;;;13.80;99.90;;;;;;5040450;28;20117;-76
2022/10/09 07:41:25;;;;;;;;;;;13.90;99.90;;;;;;5058365;28;20429;-78
2022/10/09 07:43:51;;;;;;;;;;;14.00;99.90;;;;;;5059202;28;20473;-76
2022/10/09 07:46:17;;;;;;;;;;;14.10;99.90;;;;;;5060156;28;20085;-79
2022/10/09 07:48:43;;;;;;;;;;;14.20;99.90;;;;;;5041267;28;20124;-77
2022/10/09 07:51:17;;;;;;;;;;;14.30;99.90;;;;;;5042890;28;19904;-77
2022/10/09 07:53:43;;;;;;;;;;;14.20;99.90;;;;;;5048594;28;19905;-77
2022/10/09 07:56:15;;;;;;;;;;;14.30;99.90;;;;;;5047462;28;20390;-83
2022/10/09 07:58:41;;;;;;;;;;;15.90;99.90;;;;;;5066281;28;19966;-76
2022/10/09 08:01:07;;;;;;;;;;;13.20;99.90;;;;;;5065409;28;19908;-84
2022/10/09 08:03:36;;;;;;;;;;;14.60;99.90;;;;;;5050263;28;20627;-80
2022/10/09 08:06:02;;;;;;;;;;;14.80;99.90;;;;;;5048962;28;20250;-77
2022/10/09 08:08:28;;;;;;;;;;;16.30;99.90;;;;;;5048900;28;20026;-82
2022/10/09 08:10:54;;;;;;;;;;;15.00;99.90;;;;;;5049102;28;19908;-77
2022/10/09 08:13:19;;;;;;;;;;;18.00;99.90;;;;;;5066424;28;20390;-77
2022/10/09 08:15:45;;;;;;;;;;;15.20;99.90;;;;;;5065513;28;20502;-82
2022/10/09 08:18:11;;;;;;;;;;;15.30;99.90;;;;;;5047574;28;20434;-80
2022/10/09 08:20:37;;;;;;;;;;;15.60;99.90;;;;;;5065616;28;20391;-77
2022/10/09 08:23:04;;;;;;;;;;;15.70;99.90;;;;;;5064530;28;19954;-78
2022/10/09 08:25:36;;;;;;;;;;;16.00;99.90;;;;;;5064333;28;19905;-82
2022/10/09 08:28:02;;;;;;;;;;;16.20;99.90;;;;;;5063738;28;19955;-82
2022/10/09 08:30:28;;;;;;;;;;;15.60;99.90;;;;;;5063475;28;19904;-80
2022/10/09 08:32:54;;;;;;;;;;;16.60;99.90;;;;;;5063147;28;20117;-78
2022/10/09 08:35:19;;;;;;;;;;;16.70;99.90;;;;;;5063309;28;20254;-76
2022/10/09 08:37:45;;;;;;;;;;;16.70;99.90;;;;;;5045846;28;20292;-78
2022/10/09 08:40:16;;;;;;;;;;;16.90;99.90;;;;;;5065020;28;19913;-79
2022/10/09 08:42:45;;;;;;;;;;;16.90;99.90;;;;;;5062004;28;20352;-77
2022/10/09 08:45:18;;;;;;;;;;;17.10;99.90;;;;;;5064369;28;19904;-86
2022/10/09 08:47:49;;;;;;;;;;;17.20;99.90;;;;;;5064968;28;20029;-79
2022/10/09 08:50:17;;;;;;;;;;;17.30;99.90;;;;;;5045116;28;19904;-77
2022/10/09 08:52:51;;;;;;;;;;;17.30;99.90;;;;;;5028687;28;20187;-82
2022/10/09 08:55:20;;;;;;;;;;;20.00;99.90;;;;;;5064327;28;19970;-80
2022/10/09 08:57:50;;;;;;;;;;;17.40;99.90;;;;;;5065349;28;20185;-79
2022/10/09 09:00:17;;;;;;;;;;;15.10;99.90;;;;;;5064537;28;20023;-81
2022/10/09 09:02:43;;;;;;;;;;;17.50;99.90;;;;;;5045715;28;19905;-76
2022/10/09 09:05:12;;;;;;;;;;;17.50;99.90;;;;;;5064055;28;19987;-77
2022/10/09 09:07:37;;;;;;;;;;;17.50;99.90;;;;;;5063693;28;20371;-76
2022/10/09 09:10:22;;;;;;;;;;;17.50;99.90;;;;;;5062923;28;19916;-80
2022/10/09 09:12:53;;;;;;;;;;;17.60;99.90;;;;;;5062070;28;20026;-76
2022/10/09 09:15:22;;;;;;;;;;;16.80;99.90;;;;;;5044056;28;19951;-76
2022/10/09 09:17:53;;;;;;;;;;;17.60;99.90;;;;;;5063185;28;19916;-75
2022/10/09 09:20:24;;;;;;;;;;;17.60;99.90;;;;;;5063754;28;19908;-80
2022/10/09 09:22:50;;;;;;;;;;;17.60;99.90;;;;;;5063186;28;19904;-83
2022/10/09 09:25:19;;;;;;;;;;;17.30;99.90;;;;;;5062164;28;19914;-78
2022/10/09 09:27:45;;;;;;;;;;;17.50;99.90;;;;;;5044708;28;20401;-83
2022/10/09 09:30:15;;;;;;;;;;;17.60;99.90;;;;;;5061306;28;19983;-80
2022/10/09 09:32:43;;;;;;;;;;;17.60;99.90;;;;;;5061543;28;19905;-76
2022/10/09 09:35:20;;;;;;;;;;;17.70;99.90;;;;;;5060578;28;19943;-80
2022/10/09 09:37:46;;;;;;;;;;;17.60;99.90;;;;;;5061332;28;19904;-76
2022/10/09 09:40:15;;;;;;;;;;;17.60;99.90;;;;;;5061753;28;19970;-76
2022/10/09 09:42:41;;;;;;;;;;;17.70;99.90;;;;;;5045695;28;19934;-79
2022/10/09 09:45:11;;;;;;;;;;;17.80;99.90;;;;;;5065257;28;20207;-76
2022/10/09 09:47:39;;;;;;;;;;;17.90;99.90;;;;;;5045934;28;20362;-79
2022/10/09 09:50:05;;;;;;;;;;;18.00;99.90;;;;;;5062559;28;19904;-76
2022/10/09 09:52:34;;;;;;;;;;;18.00;99.90;;;;;;5044717;28;20272;-77
2022/10/09 09:55:00;;;;;;;;;;;15.30;99.90;;;;;;5062585;28;20276;-83
2022/10/09 09:57:34;;;;;;;;;;;18.10;99.90;;;;;;5041756;28;20003;-83
2022/10/09 10:00:07;;;;;;;;;;;18.10;99.90;;;;;;5061511;28;19921;-76
2022/10/09 10:02:33;;;;;;;;;;;17.70;99.90;;;;;;5061191;28;20124;-82
2022/10/09 10:05:07;;;;;;;;;;;18.30;99.90;;;;;;5042066;28;19904;-78
2022/10/09 10:07:33;;;;;;;;;;;18.50;99.90;;;;;;5060699;28;19958;-76
2022/10/09 10:10:08;;;;;;;;;;;18.60;99.90;;;;;;5060355;28;20284;-77
2022/10/09 10:12:42;;;;;;;;;;;18.70;99.90;;;;;;5060090;28;20513;-79
2022/10/09 10:15:24;;;;;;;;;;;18.80;99.90;;;;;;5044750;28;19931;-78
2022/10/09 10:17:56;;;;;;;;;;;18.70;99.90;;;;;;5061588;28;19915;-89
2022/10/09 10:20:22;;;;;;;;;;;18.90;99.90;;;;;;5060175;28;19994;-78
2022/10/09 10:22:50;;;;;;;;;;;19.00;99.90;;;;;;5029514;28;20292;-84
2022/10/09 10:25:17;;;;;;;;;;;19.10;99.90;;;;;;5064926;28;19904;-77
2022/10/09 10:27:44;;;;;;;;;;;19.10;99.90;;;;;;5062272;28;19978;-78
2022/10/09 10:30:11;;;;;;;;;;;19.30;99.90;;;;;;5042260;28;20007;-79
2022/10/09 10:32:43;;;;;;;;;;;19.30;99.90;;;;;;5060637;28;19908;-82
2022/10/09 10:35:32;;;;;;;;;;;19.30;99.90;;;;;;5042160;28;20193;-84
2022/10/09 10:38:11;;;;;;;;;;;19.40;99.90;;;;;;5043258;28;19940;-81
2022/10/09 10:40:57;;;;;;;;;;;19.60;99.90;;;;;;5064100;28;20159;-78
2022/10/09 10:43:37;;;;;;;;;;;19.70;99.90;;;;;;5042747;28;19939;-78
2022/10/09 10:46:03;;;;;;;;;;;19.80;99.90;;;;;;5045402;28;19915;-79
2022/10/09 10:48:38;;;;;;;;;;;19.90;99.90;;;;;;5044736;28;19912;-80
2022/10/09 10:51:09;;;;;;;;;;;19.90;99.90;;;;;;5062885;28;19915;-77
2022/10/09 10:53:38;;;;;;;;;;;19.80;99.90;;;;;;5062114;28;19904;-79
2022/10/09 10:56:06;;;;;;;;;;;19.70;99.90;;;;;;5043913;28;19914;-79
2022/10/09 10:58:45;;;;;;;;;;;19.70;99.90;;;;;;5060766;28;19912;-78
2022/10/09 11:01:51;;;;;;;;;;;19.80;99.90;;;;;;5042896;28;20479;-76
2022/10/09 11:04:23;;;;;;;;;;;20.00;99.90;;;;;;5021803;28;19943;-78
2022/10/09 11:07:12;;;;;;;;;;;20.20;99.90;;;;;;5044701;28;19915;-83
2022/10/09 11:09:47;;;;;;;;;;;20.10;99.90;;;;;;5064176;28;19912;-80
2022/10/09 11:12:13;;;;;;;;;;;20.30;99.90;;;;;;5063313;28;19919;-77
2022/10/09 11:15:04;;;;;;;;;;;20.30;99.90;;;;;;5061238;28;19905;-77
2022/10/09 11:17:45;;;;;;;;;;;20.30;99.90;;;;;;4979890;28;19933;-80
2022/10/09 11:20:23;;;;;;;;;;;20.40;99.90;;;;;;4978814;28;19960;-82
2022/10/09 11:22:49;;;;;;;;;;;20.60;99.90;;;;;;4979180;28;19976;-78
2022/10/09 11:25:25;;;;;;;;;;;20.60;99.90;;;;;;4963093;28;20005;-77
2022/10/09 11:27:56;;;;;;;;;;;19.40;99.90;;;;;;4978344;28;20403;-78
2022/10/09 11:30:25;;;;;;;;;;;21.00;99.90;;;;;;4978120;28;20348;-77
2022/10/09 11:32:51;;;;;;;;;;;20.90;99.90;;;;;;4978047;28;19921;-80
2022/10/09 11:35:20;;;;;;;;;;;20.90;99.90;;;;;;4976624;28;19916;-77
2022/10/09 11:37:55;;;;;;;;;;;21.00;99.90;;;;;;4980675;28;20118;-77
2022/10/09 11:40:23;;;;;;;;;;;21.20;99.90;;;;;;4981047;28;20246;-79
2022/10/09 11:42:56;;;;;;;;;;;21.10;99.90;;;;;;4980575;28;19917;-77
2022/10/09 11:45:40;;;;;;;;;;;21.10;99.90;;;;;;4963817;28;20341;-77
2022/10/09 11:48:15;;;;;;;;;;;19.40;99.40;;;;;;4980412;28;19993;-77
2022/10/09 11:50:53;;;;;;;;;;;21.50;99.60;;;;;;4980257;28;19913;-76
2022/10/09 11:53:20;;;;;;;;;;;21.70;99.10;;;;;;4969454;28;19917;-79
2022/10/09 11:55:47;;;;;;;;;;;21.70;98.50;;;;;;5062526;28;19904;-79
2022/10/09 11:58:20;;;;;;;;;;;21.80;98.40;;;;;;5060182;28;19947;-84
2022/10/09 12:00:49;;;;;;;;;;;21.50;98.50;;;;;;5042957;28;19909;-80
2022/10/09 12:03:32;;;;;;;;;;;21.40;98.30;;;;;;5024508;28;19905;-79
2022/10/09 12:06:12;;;;;;;;;;;21.60;98.40;;;;;;5042297;28;19909;-79
2022/10/09 12:08:40;;;;;;;;;;;21.70;98.50;;;;;;5041987;28;19939;-78
2022/10/09 12:11:08;;;;;;;;;;;21.70;97.40;;;;;;5025588;28;19909;-78
2022/10/09 12:13:37;;;;;;;;;;;21.60;98.20;;;;;;5043462;28;20423;-81
2022/10/09 12:16:04;;;;;;;;;;;21.60;97.40;;;;;;5042040;28;19905;-80
2022/10/09 12:18:33;;;;;;;;;;;21.40;97.90;;;;;;5043269;28;19904;-79
2022/10/09 12:21:02;;;;;;;;;;;21.50;98.20;;;;;;5024732;28;19904;-78
2022/10/09 12:23:30;;;;;;;;;;;21.20;98.30;;;;;;5042718;28;19908;-78
2022/10/09 12:25:56;;;;;;;;;;;21.40;97.90;;;;;;5041467;28;19992;-78
2022/10/09 12:28:28;;;;;;;;;;;21.60;97.50;;;;;;5041791;28;20356;-78
2022/10/09 12:30:57;;;;;;;;;;;21.70;97.20;;;;;;5023240;28;19991;-79
2022/10/09 12:33:29;;;;;;;;;;;21.70;98.00;;;;;;5042463;28;19935;-79
2022/10/09 12:36:18;;;;;;;;;;;21.80;96.90;;;;;;5043214;28;19909;-78
2022/10/09 12:38:44;;;;;;;;;;;21.90;96.70;;;;;;4963485;28;19910;-78
2022/10/09 12:41:13;;;;;;;;;;;22.00;96.10;;;;;;4960243;28;20057;-88
2022/10/09 12:43:49;;;;;;;;;;;22.00;96.00;;;;;;4965982;28;19913;-79
2022/10/09 12:46:35;;;;;;;;;;;21.90;95.40;;;;;;4961774;28;19914;-83
2022/10/09 12:49:02;;;;;;;;;;;21.90;95.70;;;;;;4945843;28;19918;-78
2022/10/09 12:51:32;;;;;;;;;;;21.80;95.90;;;;;;4945166;28;20224;-81
2022/10/09 12:53:58;;;;;;;;;;;21.80;95.70;;;;;;4946467;28;19941;-89
2022/10/09 12:56:35;;;;;;;;;;;21.70;95.50;;;;;;4944555;28;20401;-80
2022/10/09 12:59:01;;;;;;;;;;;21.40;95.70;;;;;;4960580;28;19972;-81
2022/10/09 13:01:27;;;;;;;;;;;21.40;96.00;;;;;;4960109;28;20199;-78
2022/10/09 13:04:02;;;;;;;;;;;21.30;96.10;;;;;;4959607;28;20104;-76
2022/10/09 13:06:41;;;;;;;;;;;21.40;95.90;;;;;;4955594;28;20450;-85
2022/10/09 13:09:16;;;;;;;;;;;20.90;96.30;;;;;;4959600;28;19945;-80
2022/10/09 13:11:46;;;;;;;;;;;21.30;96.60;;;;;;4959802;28;19953;-79
2022/10/09 13:14:25;;;;;;;;;;;21.30;96.80;;;;;;4945300;28;19910;-85
2022/10/09 13:16:51;;;;;;;;;;;23.60;97.30;;;;;;5036196;28;19912;-78
2022/10/09 13:19:25;;;;;;;;;;;21.20;96.90;;;;;;5042372;28;19982;-78
2022/10/09 13:22:04;;;;;;;;;;;21.30;96.90;;;;;;5041312;28;19967;-76
2022/10/09 13:24:29;;;;;;;;;;;21.30;96.90;;;;;;5041503;28;19911;-80
2022/10/09 13:26:55;;;;;;;;;;;21.50;96.90;;;;;;5041301;28;19904;-86
2022/10/09 13:29:21;;;;;;;;;;;21.60;96.90;;;;;;5041371;28;19967;-77
2022/10/09 13:31:47;;;;;;;;;;;21.60;96.70;;;;;;5042429;28;19928;-78
2022/10/09 13:34:13;;;;;;;;;;;21.60;96.30;;;;;;5043293;28;19912;-79
2022/10/09 13:36:39;;;;;;;;;;;21.80;95.80;;;;;;5042931;28;19911;-77
2022/10/09 13:39:04;;;;;;;;;;;21.80;95.60;;;;;;5042226;28;19908;-86
2022/10/09 13:41:30;;;;;;;;;;;21.70;95.70;;;;;;5041893;28;19908;-78
2022/10/09 13:43:56;;;;;;;;;;;21.70;95.90;;;;;;5041910;28;19943;-80
2022/10/09 13:46:21;;;;;;;;;;;21.70;95.60;;;;;;5023645;28;20335;-77
2022/10/09 13:48:47;;;;;;;;;;;21.80;96.30;;;;;;5040956;28;20540;-77
2022/10/09 13:51:13;;;;;;;;;;;21.80;95.40;;;;;;5022511;28;19909;-86
2022/10/09 13:53:38;;;;;;;;;;;21.80;95.90;;;;;;5041540;28;19905;-80
2022/10/09 13:56:06;;;;;;;;;;;21.80;95.20;;;;;;5022397;28;19908;-77
2022/10/09 13:58:31;;;;;;;;;;;21.80;95.30;;;;;;5029714;28;20244;-82
2022/10/09 14:00:57;;;;;;;;;;;21.90;95.30;;;;;;5063671;28;20076;-77
2022/10/09 14:03:23;;;;;;;;;;;21.80;95.80;;;;;;5064109;28;19936;-77
2022/10/09 14:05:58;;;;;;;;;;;21.60;96.10;;;;;;5046986;28;20417;-76
2022/10/09 14:08:24;;;;;;;;;;;21.60;96.00;;;;;;5063806;28;19978;-77
2022/10/09 14:10:49;;;;;;;;;;;21.50;96.40;;;;;;5064794;28;19924;-77
2022/10/09 14:13:15;;;;;;;;;;;21.40;96.60;;;;;;5046177;28;20398;-76
2022/10/09 14:15:41;;;;;;;;;;;21.40;96.90;;;;;;5045992;28;19904;-87
2022/10/09 14:18:07;;;;;;;;;;;21.40;96.90;;;;;;5061319;28;20005;-79
2022/10/09 14:20:33;;;;;;;;;;;21.40;97.20;;;;;;5043624;28;20209;-81
2022/10/09 14:22:59;;;;;;;;;;;21.30;97.40;;;;;;5061265;28;19913;-77
2022/10/09 14:25:24;;;;;;;;;;;22.00;97.80;;;;;;5060464;28;20238;-77
2022/10/09 14:27:50;;;;;;;;;;;21.30;97.60;;;;;;5043028;28;19920;-76
2022/10/09 14:30:16;;;;;;;;;;;21.40;98.30;;;;;;5060539;28;20061;-85